Terminal Aerodrome Forecast
Issued by NWS

Home | Current Version | Previous Version | Text Only | Print | Product List | Glossary On
Versions: 1 2 3 4 5 6 7 8 9 10 11 12 13 14 15
000
FTUS41 KCAR 210500
TAFPQI
TAF
KPQI 210520Z 2106/2206 19010KT P6SM OVC060
     FM210900 19010KT P6SM BKN015
     FM211500 19014KT P6SM BKN040
     FM220000 17010KT P6SM VCSH OVC015
     FM220500 VRB04KT 6SM -SHRA BR OVC008
      AMD LTD TO CLD VIS AND WIND=

USA.gov is the U.S. government's official web portal to all federal, state and local government web resources and services.